Time;durP1;ratioP1;P1;durP2;ratioP2;P2;SDS_P1;SDS_P2;PMS_P1;PMS_P2;Temp;Humidity;BMP_temperature;BMP_pressure;BME280_temperature;BME280_humidity;BME280_pressure;Samples;Min_cycle;Max_cycle;Signal;HPM_P1;HPM_P2
2021/03/03 00:01:21;;;;;;;26.53;13.37;;;9.30;1.00;;;;;;5057831;28;20285;-77
2021/03/03 00:03:48;;;;;;;34.87;16.03;;;9.30;1.00;;;;;;5056636;28;20326;-77
2021/03/03 00:06:15;;;;;;;29.70;14.57;;;9.40;1.00;;;;;;5034402;28;20209;-77
2021/03/03 00:08:41;;;;;;;29.27;15.47;;;9.40;99.90;;;;;;5032452;28;20634;-77
2021/03/03 00:11:07;;;;;;;26.87;14.37;;;9.50;86.00;;;;;;5028499;28;20244;-77
2021/03/03 00:13:34;;;;;;;28.43;14.23;;;9.60;99.90;;;;;;5030725;28;20232;-76
2021/03/03 00:16:00;;;;;;;26.10;14.53;;;9.50;1.00;;;;;;5024739;28;20547;-77
2021/03/03 00:18:26;;;;;;;30.23;15.00;;;9.50;99.90;;;;;;5030511;28;20217;-77
2021/03/03 00:20:53;;;;;;;23.43;14.13;;;9.60;1.00;;;;;;5043396;28;20240;-77
2021/03/03 00:23:19;;;;;;;26.37;15.30;;;9.40;1.00;;;;;;5044518;28;20340;-77
2021/03/03 00:25:45;;;;;;;23.20;14.13;;;9.20;99.90;;;;;;5045147;28;20255;-76
2021/03/03 00:28:12;;;;;;;23.20;14.20;;;9.30;1.00;;;;;;5044456;28;20205;-77
2021/03/03 00:30:38;;;;;;;28.90;13.67;;;9.40;1.00;;;;;;5013435;28;20284;-76
2021/03/03 00:33:05;;;;;;;25.97;14.33;;;9.40;1.00;;;;;;5059504;28;20231;-77
2021/03/03 00:35:31;;;;;;;29.23;15.40;;;9.10;1.00;;;;;;5044339;28;20593;-76
2021/03/03 00:37:58;;;;;;;25.97;14.70;;;9.00;99.90;;;;;;5045739;28;20200;-77
2021/03/03 02:06:28;;;;;;;28.23;15.80;;;8.20;1.00;;;;;;4531998;28;20329;-77
2021/03/03 02:09:02;;;;;;;25.13;13.60;;;8.20;1.00;;;;;;5031605;28;20211;-77
2021/03/03 02:11:49;;;;;;;23.57;14.87;;;8.20;1.00;;;;;;5051473;28;20199;-77
2021/03/03 02:14:27;;;;;;;24.27;14.77;;;8.30;1.00;;;;;;5052576;28;20635;-77
2021/03/03 02:16:55;;;;;;;27.47;14.40;;;8.20;1.00;;;;;;5045245;28;20202;-77
2021/03/03 02:19:27;;;;;;;26.83;15.37;;;8.20;1.00;;;;;;5045524;28;20220;-77
2021/03/03 02:22:25;;;;;;;29.67;14.80;;;8.20;1.00;;;;;;5047694;28;20255;-77
2021/03/03 02:24:55;;;;;;;25.73;14.03;;;8.30;1.00;;;;;;5038360;28;20686;-77
2021/03/03 02:27:23;;;;;;;23.93;14.93;;;8.40;1.00;;;;;;5061448;28;20652;-77
2021/03/03 02:29:51;;;;;;;29.00;15.40;;;8.70;1.00;;;;;;5045698;28;20598;-77
2021/03/03 02:32:19;;;;;;;24.37;13.73;;;8.80;1.00;;;;;;5058504;28;20333;-77
2021/03/03 02:34:47;;;;;;;27.17;14.27;;;8.80;1.00;;;;;;5044356;28;20276;-77
2021/03/03 02:37:16;;;;;;;26.30;13.97;;;8.90;99.90;;;;;;5060090;28;20207;-77
2021/03/03 02:39:43;;;;;;;28.33;14.33;;;8.80;99.90;;;;;;5050674;28;20272;-77
2021/03/03 02:42:12;;;;;;;28.83;15.00;;;8.80;99.90;;;;;;5052584;28;20203;-77
2021/03/03 02:44:40;;;;;;;28.27;14.50;;;8.80;99.90;;;;;;5047047;28;20319;-77
2021/03/03 02:47:06;;;;;;;26.70;14.27;;;8.80;99.90;;;;;;5046190;28;20624;-77
2021/03/03 02:49:34;;;;;;;25.10;14.30;;;8.80;99.90;;;;;;5046142;28;20214;-78
2021/03/03 02:52:01;;;;;;;25.93;14.50;;;8.70;1.00;;;;;;5049248;28;20646;-78
2021/03/03 02:54:27;;;;;;;24.70;13.40;;;8.70;99.90;;;;;;5065793;28;20280;-78
2021/03/03 02:56:55;;;;;;;26.70;14.80;;;8.80;99.90;;;;;;5057694;28;20199;-78
2021/03/03 02:59:29;;;;;;;22.33;13.97;;;8.70;1.00;;;;;;5034260;28;20226;-77
2021/03/03 03:02:00;;;;;;;32.47;15.03;;;8.50;1.00;;;;;;5050965;28;20204;-77
2021/03/03 03:04:31;;;;;;;25.63;13.97;;;8.40;1.00;;;;;;5047202;28;20279;-77
2021/03/03 03:07:01;;;;;;;28.10;14.17;;;8.60;1.00;;;;;;5058207;28;20282;-77
2021/03/03 03:09:28;;;;;;;23.20;14.57;;;8.70;1.00;;;;;;5047487;28;20219;-77
2021/03/03 03:11:55;;;;;;;21.83;13.37;;;8.70;1.00;;;;;;5046368;28;20192;-77
2021/03/03 03:14:24;;;;;;;28.33;13.83;;;8.60;1.00;;;;;;5053502;28;20217;-77
2021/03/03 03:16:53;;;;;;;26.73;14.57;;;8.30;1.00;;;;;;5038720;28;20218;-77
2021/03/03 03:19:25;;;;;;;22.93;14.80;;;8.40;1.00;;;;;;5039466;28;20235;-77
2021/03/03 03:21:52;;;;;;;24.87;14.30;;;8.40;1.00;;;;;;5053793;28;20558;-77
2021/03/03 03:24:20;;;;;;;28.07;15.43;;;8.50;1.00;;;;;;5032287;28;20555;-77
2021/03/03 03:26:51;;;;;;;23.57;13.70;;;8.40;1.00;;;;;;5031657;28;20264;-77
2021/03/03 03:29:18;;;;;;;22.60;12.10;;;8.60;1.00;;;;;;5065990;28;20540;-77
2021/03/03 03:31:45;;;;;;;24.67;14.07;;;8.50;1.00;;;;;;5053122;28;20252;-77
2021/03/03 03:34:13;;;;;;;26.90;13.93;;;8.40;1.00;;;;;;5051493;28;20206;-77
2021/03/03 03:36:40;;;;;;;24.10;14.67;;;8.40;1.00;;;;;;5051454;28;20261;-77
2021/03/03 03:39:12;;;;;;;25.80;14.70;;;8.40;1.00;;;;;;5050490;28;20206;-76
2021/03/03 03:41:40;;;;;;;23.13;13.70;;;8.30;1.00;;;;;;5059378;28;20541;-77
2021/03/03 03:44:09;;;;;;;21.80;12.60;;;8.30;1.00;;;;;;5045228;28;20295;-77
2021/03/03 03:46:37;;;;;;;25.30;13.20;;;8.40;1.00;;;;;;5068029;28;22313;-78
2021/03/03 03:49:04;;;;;;;26.53;14.80;;;8.30;1.00;;;;;;5057673;28;20224;-77
2021/03/03 03:51:31;;;;;;;26.20;13.37;;;8.30;1.00;;;;;;5055483;28;20276;-77
2021/03/03 03:53:58;;;;;;;19.93;12.37;;;8.20;1.00;;;;;;5064499;28;20323;-77
2021/03/03 03:56:24;;;;;;;24.23;13.57;;;8.10;1.00;;;;;;5044867;28;20247;-76
2021/03/03 03:58:50;;;;;;;22.73;13.20;;;8.10;1.00;;;;;;5042013;28;20234;-77
2021/03/03 04:01:17;;;;;;;21.07;13.60;;;8.20;1.00;;;;;;5025749;28;20301;-76
2021/03/03 04:03:43;;;;;;;21.50;13.43;;;8.10;14.50;;;;;;5041793;28;20669;-76
2021/03/03 04:06:10;;;;;;;22.20;13.43;;;8.00;20.00;;;;;;5038168;28;20227;-76
2021/03/03 04:08:36;;;;;;;23.27;13.57;;;8.00;7.50;;;;;;5055661;28;20215;-77
2021/03/03 04:11:02;;;;;;;22.60;13.47;;;7.80;1.00;;;;;;5027862;28;20207;-77
2021/03/03 04:13:29;;;;;;;28.83;14.33;;;7.90;1.00;;;;;;5029929;28;20279;-77
2021/03/03 04:15:55;;;;;;;22.10;13.73;;;7.90;1.00;;;;;;5043209;28;20340;-77
2021/03/03 04:18:22;;;;;;;25.23;14.57;;;7.90;1.00;;;;;;5025762;28;20572;-76
2021/03/03 04:20:48;;;;;;;23.47;14.93;;;7.90;1.00;;;;;;5030641;28;20273;-76
2021/03/03 04:23:15;;;;;;;24.87;13.70;;;7.90;1.00;;;;;;5047910;28;20199;-77
2021/03/03 04:25:41;;;;;;;22.80;14.13;;;8.00;1.00;;;;;;5027007;28;20600;-78
2021/03/03 04:28:08;;;;;;;19.90;12.17;;;8.00;1.00;;;;;;5047765;28;20204;-77
2021/03/03 04:30:35;;;;;;;21.90;12.87;;;7.90;1.00;;;;;;5041128;28;20229;-77
2021/03/03 04:33:12;;;;;;;24.33;13.37;;;7.90;1.00;;;;;;5039282;28;20214;-77
2021/03/03 04:35:40;;;;;;;19.23;12.37;;;7.90;1.00;;;;;;5040263;28;20570;-77
2021/03/03 04:38:09;;;;;;;16.70;11.00;;;7.90;1.00;;;;;;5059423;28;20277;-77
2021/03/03 04:40:36;;;;;;;19.17;10.93;;;7.80;1.00;;;;;;5037781;28;20229;-77
2021/03/03 04:43:03;;;;;;;19.53;11.10;;;7.90;1.00;;;;;;5045166;28;20215;-77
2021/03/03 04:45:29;;;;;;;20.80;11.07;;;7.80;1.00;;;;;;5026925;28;20216;-78
2021/03/03 04:47:56;;;;;;;18.73;12.10;;;7.80;11.40;;;;;;5028732;28;20244;-77
2021/03/03 04:50:23;;;;;;;26.23;13.33;;;7.80;1.00;;;;;;5013625;28;20526;-78
2021/03/03 04:52:49;;;;;;;17.60;11.53;;;7.80;1.00;;;;;;5035782;28;20207;-78
2021/03/03 04:55:16;;;;;;;16.17;11.00;;;7.90;1.00;;;;;;5043991;28;20245;-78
2021/03/03 04:57:42;;;;;;;21.83;11.33;;;7.80;1.00;;;;;;5034573;28;20268;-77
2021/03/03 05:00:09;;;;;;;18.80;10.90;;;7.80;6.20;;;;;;5039223;28;20216;-77
2021/03/03 05:02:36;;;;;;;17.37;11.17;;;7.70;24.60;;;;;;5048704;28;20255;-77
2021/03/03 05:05:03;;;;;;;20.10;12.27;;;7.60;51.70;;;;;;5033103;28;20230;-77
2021/03/03 05:07:29;;;;;;;22.90;12.80;;;7.60;99.90;;;;;;5025019;28;20716;-77
2021/03/03 05:09:55;;;;;;;16.97;11.37;;;7.70;85.80;;;;;;5016520;28;20354;-77
2021/03/03 05:12:23;;;;;;;19.90;11.57;;;7.70;85.30;;;;;;5020672;28;20207;-77
2021/03/03 05:14:49;;;;;;;21.87;11.37;;;7.70;37.90;;;;;;5030338;28;20568;-78
2021/03/03 05:17:16;;;;;;;17.97;9.67;;;7.70;1.00;;;;;;5047940;28;20208;-78
2021/03/03 05:19:45;;;;;;;21.43;11.33;;;7.50;1.00;;;;;;5016884;28;20299;-76
2021/03/03 05:22:12;;;;;;;20.83;11.67;;;7.30;38.00;;;;;;5040692;28;20199;-77
2021/03/03 05:24:39;;;;;;;19.80;11.93;;;7.40;30.10;;;;;;5048780;28;20557;-77
2021/03/03 05:27:05;;;;;;;21.43;12.30;;;7.40;16.60;;;;;;5028734;28;20709;-76
2021/03/03 05:29:31;;;;;;;21.10;14.13;;;7.50;1.00;;;;;;5021781;28;20270;-77
2021/03/03 05:31:59;;;;;;;20.13;12.87;;;7.40;1.00;;;;;;5031222;28;20224;-77
2021/03/03 05:34:25;;;;;;;21.37;12.37;;;7.40;1.00;;;;;;5014060;28;20266;-77
2021/03/03 05:36:56;;;;;;;23.23;13.03;;;7.50;1.00;;;;;;5010428;28;20219;-77
2021/03/03 05:39:22;;;;;;;21.87;13.43;;;7.50;1.00;;;;;;5029205;28;20204;-77
2021/03/03 05:41:48;;;;;;;20.43;13.13;;;7.50;1.00;;;;;;5015069;28;20686;-77
2021/03/03 05:44:15;;;;;;;21.10;13.43;;;7.40;1.00;;;;;;5029557;28;20193;-77
2021/03/03 05:46:44;;;;;;;22.30;13.13;;;7.30;1.00;;;;;;5044906;28;20210;-77
2021/03/03 05:49:15;;;;;;;18.03;11.97;;;7.30;1.00;;;;;;5028047;28;20256;-77
2021/03/03 05:51:42;;;;;;;25.73;12.30;;;7.40;1.00;;;;;;5026252;28;20249;-77
2021/03/03 05:54:09;;;;;;;26.93;13.93;;;7.50;1.00;;;;;;5030223;28;20305;-77
2021/03/03 05:56:36;;;;;;;20.67;13.10;;;7.30;1.00;;;;;;5034383;28;20258;-78
2021/03/03 05:59:02;;;;;;;26.87;13.63;;;7.30;1.00;;;;;;5044224;28;20222;-77
2021/03/03 06:01:30;;;;;;;21.40;14.03;;;7.30;1.00;;;;;;5040698;28;20292;-77
2021/03/03 06:04:17;;;;;;;24.20;15.03;;;7.20;1.90;;;;;;5035380;28;20211;-77
2021/03/03 06:06:44;;;;;;;25.97;14.67;;;7.30;18.40;;;;;;5013080;28;20272;-76
2021/03/03 06:09:11;;;;;;;21.50;13.67;;;7.30;1.00;;;;;;5019522;28;20273;-76
2021/03/03 06:11:38;;;;;;;25.77;14.20;;;7.40;1.00;;;;;;5013324;28;20213;-77
2021/03/03 06:14:04;;;;;;;22.33;13.73;;;7.40;1.50;;;;;;5029439;28;20196;-77
2021/03/03 06:16:31;;;;;;;28.20;15.07;;;7.30;1.00;;;;;;5031907;28;20326;-77
2021/03/03 06:18:58;;;;;;;22.63;13.57;;;7.30;1.00;;;;;;5029496;28;22037;-77
2021/03/03 06:21:29;;;;;;;27.40;15.93;;;7.40;1.00;;;;;;5030626;28;20266;-77
2021/03/03 06:24:08;;;;;;;23.30;14.47;;;7.50;1.00;;;;;;5050139;28;20193;-77
2021/03/03 06:26:52;;;;;;;25.40;14.00;;;7.40;1.00;;;;;;5022589;28;20214;-77
2021/03/03 06:29:19;;;;;;;26.43;15.50;;;7.30;1.00;;;;;;5028724;28;20249;-78
2021/03/03 06:31:47;;;;;;;25.13;13.67;;;7.30;1.00;;;;;;5024387;28;20213;-77
2021/03/03 06:34:18;;;;;;;24.77;14.67;;;7.30;1.00;;;;;;5029903;28;20214;-79
2021/03/03 06:36:48;;;;;;;25.07;14.47;;;7.30;1.00;;;;;;5029094;28;20219;-77
2021/03/03 06:39:21;;;;;;;29.63;14.47;;;7.50;1.00;;;;;;5032683;28;20199;-78
2021/03/03 06:41:57;;;;;;;25.30;13.57;;;7.50;1.00;;;;;;5049129;28;20211;-78
2021/03/03 06:44:25;;;;;;;24.57;14.70;;;7.50;1.00;;;;;;5038822;28;20269;-78
2021/03/03 06:47:05;;;;;;;22.53;13.20;;;7.50;1.00;;;;;;5028105;28;20277;-78
2021/03/03 06:49:33;;;;;;;27.73;14.00;;;7.20;1.00;;;;;;5015197;28;20294;-78
2021/03/03 06:51:59;;;;;;;29.50;15.60;;;7.20;20.10;;;;;;5019693;28;20208;-78
2021/03/03 06:54:26;;;;;;;27.17;14.53;;;7.10;77.70;;;;;;5047276;28;20204;-78
2021/03/03 06:56:54;;;;;;;29.67;15.13;;;7.10;53.90;;;;;;5023400;28;20207;-78
2021/03/03 06:59:31;;;;;;;28.67;15.50;;;7.00;84.50;;;;;;5018498;28;21193;-78
2021/03/03 07:02:00;;;;;;;28.50;15.50;;;6.90;99.90;;;;;;5041539;28;20298;-78
2021/03/03 07:04:35;;;;;;;33.43;15.47;;;6.70;99.90;;;;;;5031902;28;20645;-78
2021/03/03 07:07:16;;;;;;;28.03;14.70;;;6.60;99.90;;;;;;5042284;28;20310;-77
2021/03/03 07:10:09;;;;;;;28.43;14.83;;;6.80;99.90;;;;;;5051486;28;20266;-78
2021/03/03 07:12:48;;;;;;;25.50;15.30;;;6.60;99.90;;;;;;5057919;28;20284;-76
2021/03/03 07:15:15;;;;;;;31.43;15.97;;;7.00;99.90;;;;;;5060479;28;20343;-76
2021/03/03 07:17:46;;;;;;;25.53;15.10;;;7.30;99.90;;;;;;5043010;28;20667;-79
2021/03/03 07:20:15;;;;;;;25.07;15.80;;;7.20;65.20;;;;;;5047995;28;20301;-78
2021/03/03 07:22:49;;;;;;;28.87;17.10;;;7.30;78.10;;;;;;5033523;28;20234;-77
2021/03/03 07:25:18;;;;;;;31.80;17.63;;;7.20;40.50;;;;;;5032206;28;20210;-77
2021/03/03 07:27:48;;;;;;;29.27;16.50;;;7.00;99.90;;;;;;5051470;28;20612;-77
2021/03/03 07:30:24;;;;;;;32.47;16.47;;;6.90;99.90;;;;;;5050787;28;20619;-76
2021/03/03 07:32:52;;;;;;;27.90;16.53;;;7.00;99.90;;;;;;5040585;28;20208;-79
2021/03/03 07:35:34;;;;;;;33.23;17.87;;;7.40;99.90;;;;;;5042030;28;20357;-77
2021/03/03 07:38:02;;;;;;;32.30;16.83;;;7.30;69.90;;;;;;5044870;28;20220;-79
2021/03/03 07:40:31;;;;;;;33.23;18.07;;;7.10;99.90;;;;;;5036697;28;20246;-80
2021/03/03 07:43:01;;;;;;;30.67;17.67;;;7.20;99.90;;;;;;5047924;28;20626;-81
2021/03/03 07:45:35;;;;;;;30.07;17.07;;;7.50;78.30;;;;;;5071186;28;20201;-79
2021/03/03 07:48:05;;;;;;;31.87;16.97;;;7.40;99.90;;;;;;5065061;28;20302;-78
2021/03/03 07:50:32;;;;;;;30.03;16.47;;;7.50;90.00;;;;;;5069176;28;20336;-81
2021/03/03 07:52:58;;;;;;;30.67;17.77;;;7.70;99.90;;;;;;5063222;28;20654;-81
2021/03/03 07:55:25;;;;;;;31.80;18.03;;;8.00;97.70;;;;;;5053490;28;20208;-80
2021/03/03 07:57:53;;;;;;;33.47;18.47;;;8.30;5.80;;;;;;5048713;28;20597;-81
2021/03/03 08:00:21;;;;;;;26.80;17.87;;;8.00;1.00;;;;;;5049686;28;20296;-77
2021/03/03 08:02:49;;;;;;;36.43;18.53;;;8.00;59.60;;;;;;5052101;28;20203;-78
2021/03/03 08:05:39;;;;;;;27.47;17.23;;;8.30;72.50;;;;;;5049735;28;20324;-76
2021/03/03 08:08:23;;;;;;;32.20;19.33;;;8.60;6.10;;;;;;5047635;28;20196;-77
2021/03/03 08:11:00;;;;;;;30.90;19.07;;;8.80;1.00;;;;;;5067054;28;20224;-78
2021/03/03 08:13:30;;;;;;;31.87;19.27;;;8.90;1.00;;;;;;5067494;28;20220;-76
2021/03/03 08:15:57;;;;;;;32.80;20.10;;;8.80;1.00;;;;;;5057907;28;20218;-76
2021/03/03 08:18:27;;;;;;;37.57;20.90;;;8.90;1.00;;;;;;5039392;28;20197;-75
2021/03/03 08:20:55;;;;;;;31.93;20.57;;;9.10;1.00;;;;;;5063564;28;20218;-74
2021/03/03 08:23:34;;;;;;;39.50;21.77;;;9.00;1.00;;;;;;5056827;28;20195;-75
2021/03/03 08:26:02;;;;;;;34.13;20.33;;;9.10;1.00;;;;;;5057078;28;20712;-76
2021/03/03 08:28:36;;;;;;;34.47;20.63;;;9.00;1.00;;;;;;5049790;28;20246;-76
2021/03/03 08:31:22;;;;;;;36.83;21.67;;;9.20;1.00;;;;;;5048201;28;20197;-76
2021/03/03 08:33:48;;;;;;;34.80;20.63;;;9.50;1.00;;;;;;5045570;28;20329;-73
2021/03/03 08:36:22;;;;;;;40.17;21.00;;;9.70;1.00;;;;;;5043887;28;20418;-74
2021/03/03 08:38:54;;;;;;;39.07;20.20;;;9.90;1.00;;;;;;5067476;28;20217;-74
2021/03/03 08:41:25;;;;;;;34.67;18.87;;;9.80;1.00;;;;;;5060697;28;20346;-75
2021/03/03 08:44:02;;;;;;;38.70;20.20;;;9.70;1.00;;;;;;5050954;28;20196;-73
2021/03/03 08:46:28;;;;;;;35.17;20.63;;;9.70;1.00;;;;;;5064819;28;20220;-72
2021/03/03 08:48:55;;;;;;;28.43;19.97;;;9.80;1.00;;;;;;5059580;28;20210;-75
2021/03/03 08:51:29;;;;;;;33.97;20.87;;;10.00;1.00;;;;;;5052026;28;20203;-73
2021/03/03 08:53:57;;;;;;;34.63;19.50;;;10.30;1.00;;;;;;5055520;28;20196;-74
2021/03/03 08:56:52;;;;;;;35.77;19.43;;;10.50;1.00;;;;;;5064150;28;20239;-71
2021/03/03 08:59:28;;;;;;;29.73;18.07;;;10.50;1.00;;;;;;5050265;28;20276;-75
2021/03/03 09:02:02;;;;;;;31.17;19.77;;;10.50;1.00;;;;;;5059128;28;20553;-72
2021/03/03 09:04:40;;;;;;;33.63;20.90;;;10.60;1.00;;;;;;5046134;28;20217;-74
2021/03/03 09:07:21;;;;;;;33.27;20.83;;;10.50;1.00;;;;;;5065286;28;20665;-74
2021/03/03 09:09:54;;;;;;;29.90;18.97;;;10.70;1.00;;;;;;5042669;28;20267;-73
2021/03/03 09:12:25;;;;;;;31.53;19.80;;;10.90;1.00;;;;;;5047967;28;20357;-72
2021/03/03 09:14:57;;;;;;;37.30;20.60;;;11.10;99.90;;;;;;5046201;28;20215;-75
2021/03/03 09:17:35;;;;;;;35.13;20.60;;;11.10;99.90;;;;;;5041280;28;20361;-73
2021/03/03 09:20:15;;;;;;;35.83;20.67;;;11.00;99.90;;;;;;5046589;28;20230;-75
2021/03/03 09:22:43;;;;;;;35.13;20.53;;;10.90;1.00;;;;;;5064358;28;20199;-73
2021/03/03 09:25:21;;;;;;;39.03;22.90;;;10.90;99.90;;;;;;5047007;28;20628;-75
2021/03/03 09:27:54;;;;;;;32.73;19.00;;;11.20;1.00;;;;;;5061538;28;20195;-74
2021/03/03 09:30:22;;;;;;;38.87;22.00;;;11.50;1.00;;;;;;5063367;28;20260;-75
2021/03/03 09:32:49;;;;;;;35.67;20.90;;;11.70;99.90;;;;;;5066768;28;20196;-74
2021/03/03 09:35:26;;;;;;;31.03;21.30;;;11.80;99.90;;;;;;5044924;28;20210;-74
2021/03/03 09:37:56;;;;;;;39.67;22.20;;;12.00;99.90;;;;;;5045113;28;20285;-71
2021/03/03 09:40:28;;;;;;;33.57;21.17;;;12.40;1.00;;;;;;5043068;28;20312;-72
2021/03/03 09:42:55;;;;;;;33.90;19.13;;;12.70;99.90;;;;;;5045428;28;20258;-71
2021/03/03 09:45:23;;;;;;;31.80;20.60;;;12.90;16.70;;;;;;5059525;28;20204;-72
2021/03/03 09:47:51;;;;;;;31.53;20.57;;;12.70;1.00;;;;;;5046475;28;20252;-72
2021/03/03 09:50:23;;;;;;;37.20;21.17;;;13.10;1.00;;;;;;5067906;28;20215;-71
2021/03/03 09:52:55;;;;;;;32.50;20.77;;;13.30;1.00;;;;;;5069109;28;20269;-73
2021/03/03 09:55:27;;;;;;;31.70;20.10;;;13.20;1.00;;;;;;5066495;28;20202;-73
2021/03/03 09:57:58;;;;;;;33.03;20.23;;;12.90;1.00;;;;;;5068000;28;20238;-74
2021/03/03 10:00:40;;;;;;;32.67;20.03;;;13.40;1.00;;;;;;5063622;28;20263;-73
2021/03/03 10:03:14;;;;;;;34.57;20.60;;;13.90;99.90;;;;;;5034764;28;20626;-73
2021/03/03 10:05:41;;;;;;;33.23;21.83;;;13.50;1.00;;;;;;5040340;28;20232;-74
2021/03/03 10:08:10;;;;;;;29.37;20.33;;;14.10;99.90;;;;;;5062950;28;20556;-74
2021/03/03 10:10:53;;;;;;;32.63;21.20;;;14.20;1.00;;;;;;5062811;28;20235;-73
2021/03/03 10:13:20;;;;;;;33.30;20.50;;;14.60;1.00;;;;;;5060926;28;20359;-74
2021/03/03 10:15:47;;;;;;;33.20;20.47;;;14.60;1.00;;;;;;5063490;28;21048;-73
2021/03/03 10:18:14;;;;;;;31.30;19.57;;;14.40;1.00;;;;;;5059747;28;20348;-72
2021/03/03 10:20:43;;;;;;;34.03;21.27;;;14.40;1.00;;;;;;5063429;28;20665;-74
2021/03/03 10:23:11;;;;;;;32.07;20.33;;;14.80;1.00;;;;;;5058288;28;20196;-72
2021/03/03 10:26:05;;;;;;;29.17;19.23;;;15.20;99.90;;;;;;5054208;28;20285;-74
2021/03/03 10:28:32;;;;;;;34.37;20.23;;;14.40;99.90;;;;;;5060927;28;20599;-74
2021/03/03 10:31:02;;;;;;;32.40;20.40;;;13.40;1.00;;;;;;5030041;28;20201;-73
2021/03/03 10:33:40;;;;;;;34.13;21.10;;;13.30;99.90;;;;;;5060914;28;20210;-73
2021/03/03 10:36:13;;;;;;;34.23;20.37;;;12.90;1.00;;;;;;5049453;28;20375;-72
2021/03/03 10:38:49;;;;;;;31.07;20.13;;;12.80;1.00;;;;;;5064628;28;20208;-72
2021/03/03 10:41:27;;;;;;;30.07;20.57;;;12.90;39.20;;;;;;5065730;28;20210;-73
2021/03/03 10:43:54;;;;;;;32.97;22.00;;;12.80;99.90;;;;;;5046152;28;20191;-74
2021/03/03 10:46:23;;;;;;;35.17;22.43;;;13.30;1.00;;;;;;5060630;28;20221;-73
2021/03/03 10:48:52;;;;;;;31.80;21.77;;;13.80;1.00;;;;;;5064199;28;20550;-73
2021/03/03 10:51:21;;;;;;;32.80;22.30;;;13.70;1.00;;;;;;5061875;28;20228;-73
2021/03/03 10:53:57;;;;;;;38.83;22.00;;;13.90;32.10;;;;;;5049970;28;20500;-74
2021/03/03 10:56:28;;;;;;;33.37;22.53;;;14.30;99.90;;;;;;5043629;28;20204;-73
2021/03/03 10:58:58;;;;;;;33.40;22.10;;;14.00;1.00;;;;;;5060771;28;20266;-72
2021/03/03 11:01:41;;;;;;;35.93;22.63;;;14.10;99.90;;;;;;5044932;28;20305;-72
2021/03/03 11:04:08;;;;;;;38.53;24.13;;;14.50;1.00;;;;;;5062244;28;20632;-72
2021/03/03 11:06:35;;;;;;;42.13;24.73;;;14.30;1.00;;;;;;5060129;28;20232;-73
2021/03/03 11:09:10;;;;;;;36.97;24.57;;;14.50;1.00;;;;;;5048118;28;20208;-73
2021/03/03 11:11:55;;;;;;;35.70;22.73;;;14.50;99.90;;;;;;5043525;28;20205;-73
2021/03/03 11:14:23;;;;;;;35.73;23.77;;;14.80;1.00;;;;;;5046859;28;20660;-73
2021/03/03 11:16:55;;;;;;;42.83;23.17;;;14.60;1.00;;;;;;5031077;28;20236;-72
2021/03/03 11:19:23;;;;;;;42.87;25.57;;;14.60;1.00;;;;;;5061598;28;20201;-73
2021/03/03 11:21:53;;;;;;;35.70;24.80;;;14.70;1.00;;;;;;5059224;28;20321;-72
2021/03/03 11:24:24;;;;;;;43.87;23.73;;;14.80;1.00;;;;;;5062189;28;20205;-72
2021/03/03 11:26:51;;;;;;;37.80;23.63;;;15.10;1.00;;;;;;5060272;28;20236;-73
2021/03/03 11:29:17;;;;;;;39.83;23.80;;;15.10;1.00;;;;;;5042932;28;20232;-73
2021/03/03 11:31:44;;;;;;;37.37;24.97;;;15.00;99.90;;;;;;5043907;28;20249;-73
2021/03/03 11:34:12;;;;;;;41.47;24.53;;;14.80;1.00;;;;;;5061164;28;21114;-73
2021/03/03 11:36:38;;;;;;;45.40;25.53;;;15.30;1.00;;;;;;5030994;28;20375;-72
2021/03/03 11:39:06;;;;;;;39.63;25.07;;;16.00;99.90;;;;;;5060576;28;20260;-73
2021/03/03 11:41:33;;;;;;;45.43;26.87;;;15.80;92.50;;;;;;5046376;28;20214;-76
2021/03/03 11:44:00;;;;;;;45.83;26.00;;;16.00;28.30;;;;;;5047352;28;20209;-74
2021/03/03 11:46:26;;;;;;;41.60;25.83;;;16.30;1.00;;;;;;5045254;28;20297;-73
2021/03/03 11:48:53;;;;;;;41.20;24.33;;;16.60;1.00;;;;;;5031599;28;20211;-73
2021/03/03 11:51:19;;;;;;;43.33;24.87;;;16.90;1.00;;;;;;5057482;28;20237;-74
2021/03/03 11:53:54;;;;;;;42.77;25.97;;;16.80;1.00;;;;;;5048161;28;20299;-73
2021/03/03 11:56:20;;;;;;;37.17;23.50;;;17.30;1.00;;;;;;5046423;28;20196;-71
2021/03/03 11:58:46;;;;;;;37.07;25.90;;;17.50;1.00;;;;;;5059680;28;20595;-72
2021/03/03 12:01:13;;;;;;;39.47;25.87;;;17.20;1.00;;;;;;5056132;28;20218;-73
2021/03/03 12:03:40;;;;;;;37.57;25.53;;;16.60;1.00;;;;;;5047553;28;20209;-72
2021/03/03 12:06:07;;;;;;;40.53;23.83;;;17.00;1.00;;;;;;5062008;28;20264;-72
2021/03/03 12:08:50;;;;;;;40.83;24.90;;;17.10;1.00;;;;;;5046373;28;20205;-73
2021/03/03 12:11:16;;;;;;;35.27;22.73;;;17.60;1.00;;;;;;5058306;28;21358;-72
2021/03/03 12:13:42;;;;;;;41.37;25.00;;;17.90;1.00;;;;;;5057647;28;20269;-72
2021/03/03 12:16:09;;;;;;;36.60;24.60;;;17.90;1.00;;;;;;5041216;28;20201;-72
2021/03/03 12:18:35;;;;;;;41.60;25.70;;;18.20;1.00;;;;;;5044182;28;20583;-72
2021/03/03 12:21:03;;;;;;;37.93;24.47;;;17.70;1.00;;;;;;5046414;28;20301;-72
2021/03/03 12:23:29;;;;;;;41.00;25.27;;;18.00;1.00;;;;;;5057587;28;20217;-73
2021/03/03 12:25:56;;;;;;;40.27;25.20;;;18.00;1.00;;;;;;5059297;28;20278;-74
2021/03/03 12:28:22;;;;;;;40.73;24.83;;;17.60;1.00;;;;;;5056663;28;20287;-72
2021/03/03 12:30:49;;;;;;;38.97;25.37;;;18.00;1.00;;;;;;5039414;28;20233;-73
2021/03/03 12:33:16;;;;;;;41.57;27.67;;;18.60;1.00;;;;;;5057153;28;20270;-74
2021/03/03 12:35:43;;;;;;;40.97;24.13;;;18.60;1.00;;;;;;5061826;28;20204;-74
2021/03/03 12:38:10;;;;;;;41.17;25.57;;;18.80;1.00;;;;;;5052355;28;20696;-74
2021/03/03 12:40:37;;;;;;;37.27;25.03;;;18.60;1.00;;;;;;5030681;28;20279;-74
2021/03/03 12:43:04;;;;;;;32.93;22.77;;;18.90;1.00;;;;;;5044303;28;20215;-73
2021/03/03 12:45:30;;;;;;;34.40;23.17;;;19.00;1.00;;;;;;5058528;28;20391;-73
2021/03/03 12:47:58;;;;;;;40.07;25.33;;;19.30;1.00;;;;;;5042578;28;20306;-72
2021/03/03 12:50:25;;;;;;;40.90;26.67;;;18.80;1.00;;;;;;5054364;28;20289;-73
2021/03/03 12:52:51;;;;;;;39.53;26.77;;;18.40;1.00;;;;;;5040308;28;20805;-73
2021/03/03 12:55:18;;;;;;;37.70;26.40;;;18.80;1.00;;;;;;5045625;28;20290;-73
2021/03/03 12:57:44;;;;;;;40.07;25.63;;;18.90;1.00;;;;;;5063366;28;20204;-73
2021/03/03 13:00:11;;;;;;;40.90;26.83;;;19.00;1.00;;;;;;5043886;28;20227;-73
2021/03/03 13:02:37;;;;;;;36.57;25.27;;;18.00;1.00;;;;;;5027460;28;20225;-72
2021/03/03 13:05:05;;;;;;;40.83;25.37;;;17.50;1.00;;;;;;5054032;28;20199;-72
2021/03/03 13:07:32;;;;;;;40.77;26.77;;;17.50;1.00;;;;;;5052293;28;20305;-72
2021/03/03 13:09:58;;;;;;;40.20;27.43;;;18.20;1.00;;;;;;5031057;28;20261;-72
2021/03/03 13:12:24;;;;;;;39.67;27.30;;;18.20;1.00;;;;;;5054021;28;20287;-72
2021/03/03 13:14:51;;;;;;;42.47;27.57;;;17.80;1.00;;;;;;5035361;28;20230;-71
2021/03/03 13:17:17;;;;;;;42.23;28.63;;;17.90;1.00;;;;;;5058772;28;20254;-73
2021/03/03 13:19:44;;;;;;;41.67;26.83;;;17.90;1.00;;;;;;5024697;28;20257;-72
2021/03/03 13:22:10;;;;;;;39.97;27.17;;;17.80;1.00;;;;;;5047285;28;20565;-73
2021/03/03 13:24:37;;;;;;;41.40;27.13;;;18.30;1.00;;;;;;5047058;28;20696;-73
2021/03/03 13:27:03;;;;;;;37.60;26.47;;;18.20;1.00;;;;;;5045170;28;20201;-70
2021/03/03 13:29:31;;;;;;;43.97;28.40;;;18.60;1.00;;;;;;5046046;28;20608;-72
2021/03/03 13:31:59;;;;;;;42.23;27.47;;;18.80;1.00;;;;;;5041252;28;20219;-73
2021/03/03 13:34:27;;;;;;;41.67;26.33;;;18.90;1.00;;;;;;5055844;28;20240;-74
2021/03/03 13:36:54;;;;;;;42.53;27.43;;;18.00;1.00;;;;;;5038590;28;20214;-71
2021/03/03 13:39:20;;;;;;;35.37;26.37;;;17.50;1.00;;;;;;5039567;28;20734;-72
2021/03/03 13:41:47;;;;;;;40.47;26.90;;;18.20;1.00;;;;;;5038526;28;20674;-72
2021/03/03 13:44:13;;;;;;;42.70;28.00;;;17.50;1.00;;;;;;5039103;28;20215;-71
2021/03/03 13:46:39;;;;;;;38.13;25.20;;;17.80;1.00;;;;;;5043274;28;20302;-71
2021/03/03 13:49:06;;;;;;;40.30;27.03;;;18.20;1.00;;;;;;5054846;28;20208;-73
2021/03/03 13:51:32;;;;;;;38.93;25.40;;;18.60;1.00;;;;;;4998570;28;20288;-71
2021/03/03 13:53:59;;;;;;;38.73;27.77;;;18.30;1.00;;;;;;5054877;28;20654;-72
2021/03/03 13:56:25;;;;;;;37.87;25.30;;;18.20;1.00;;;;;;5054138;28;20756;-73
2021/03/03 13:58:51;;;;;;;37.93;25.83;;;17.60;1.00;;;;;;5038021;28;20321;-72
2021/03/03 14:01:18;;;;;;;38.10;24.53;;;17.90;1.00;;;;;;5035011;28;20289;-70
2021/03/03 14:03:45;;;;;;;43.90;26.63;;;18.10;1.00;;;;;;5033776;28;20240;-74
2021/03/03 14:06:11;;;;;;;37.17;25.43;;;18.30;1.00;;;;;;5036674;28;20693;-72
2021/03/03 14:08:37;;;;;;;39.37;25.30;;;18.60;1.00;;;;;;5037079;28;20231;-72
2021/03/03 14:11:04;;;;;;;34.17;24.33;;;18.30;1.00;;;;;;5020952;28;20622;-73
2021/03/03 14:13:31;;;;;;;39.97;26.13;;;18.50;1.00;;;;;;5022553;28;20203;-73
2021/03/03 14:15:58;;;;;;;39.13;24.17;;;17.90;1.00;;;;;;5036814;28;20239;-74
2021/03/03 14:18:24;;;;;;;36.57;24.77;;;17.60;1.00;;;;;;5041240;28;20202;-72